Melissa RD121's Hourly Summary for Wednesday, July 11, 2018
Hour Temp
(f)
RH
(%)
Solar Rad.
(MJ/m2)
Rainfall
(in)
Wind
(mph)
7/11/2018 12:00 AM 77 75 0 0 0
7/11/2018 1:00 AM 75 79 0 0 0.03
7/11/2018 2:00 AM 74 84 0 0 0
7/11/2018 3:00 AM 74 86 0 0 0
7/11/2018 4:00 AM 73 88 0 0 0
7/11/2018 5:00 AM 73 89 0 0 0
7/11/2018 6:00 AM 73 90 0.04 0 0
7/11/2018 7:00 AM 74 87 0.29 0 0.19
7/11/2018 8:00 AM 78 76 0.69 0 0.16
7/11/2018 9:00 AM 81 67 1.01 0 0.2
7/11/2018 10:00 AM 84 61 1.86 0 0.26
7/11/2018 11:00 AM 89 49 2.84 0 0.98
7/11/2018 12:00 PM 91 40 2.85 0 1.46
7/11/2018 1:00 PM 92 40 2.49 0 2.49
7/11/2018 2:00 PM 94 37 2.95 0 4.07
7/11/2018 3:00 PM 93 39 1.54 0 4.26
7/11/2018 4:00 PM 90 36 1.32 0 4.89
7/11/2018 5:00 PM 85 56 0.85 0 4.04
7/11/2018 6:00 PM 88 51 0.56 0 0.31
7/11/2018 7:00 PM 89 51 0.38 0 1.72
7/11/2018 8:00 PM 87 55 0.04 0 0.42
7/11/2018 9:00 PM 84 60 0 0 1.9
7/11/2018 10:00 PM 82 65 0 0 0.16
7/11/2018 11:00 PM 79 68 0 0 0.28
Data Summary 82 63 19.71 0.00 1.16